Pagrindinis puslapis
METAR-TAF:

METAR-TAF

Oro uostai :

Abadeh, Iranas

platuma: 31-11N, ilguma: 052-40E, Aukštis: 2004 m

Dabartinis oras

Ataskaita buvo paskelbta 36 minutes, ne 11:00 UTC
Vėjas 6 kt iš Rytų/Pietryčių
Temperatūra 24°C
Drėgmė 15%
Slėgis 1028 hPa
Matomumas 10 km arba daugiau
nėra debesų žemiau 1500 m ir nėra kamuolinių lietaus debesų

METAR: OISA 141100Z 12006KT CAVOK 24/M04 Q1028 A3036

Laikas: 15:06 (11:36 UTC)


TAF: trūkstamas

Orai ataskaitas ir orų prognozės (METAR, TAF).

turimą stotys yra geltonos ir raudonos taškus žemėlapyje.

Perkelti pele per norėdami pamatyti stoties vardą.

Tada spustelėkite, norėdami matyti oro stebėjimo ir prognozės.

Norėdami pakeisti žemėlapį: spustelėkite ant žalios mygtukų su juodo kryžiaus žemyn,; žalią mygtuką su brūkšneliu, jei norite nutolinti; arba žalių rodyklių gretimoms žemėlapius.


METAR-TAF: